sensor_id;sensor_type;location;lat;lon;timestamp;P1;durP1;ratioP1;P2;durP2;ratioP2
47403;SDS011;33157;51.508;4.288;2023-02-10T00:01:27;55.38;;;28.42;;
47403;SDS011;33157;51.508;4.288;2023-02-10T00:06:28;95.93;;;30.60;;
47403;SDS011;33157;51.508;4.288;2023-02-10T00:11:29;157.95;;;32.55;;
47403;SDS011;33157;51.508;4.288;2023-02-10T00:16:53;136.07;;;31.20;;
47403;SDS011;33157;51.508;4.288;2023-02-10T00:21:57;422.70;;;41.38;;
47403;SDS011;33157;51.508;4.288;2023-02-10T00:26:58;137.38;;;32.78;;
47403;SDS011;33157;51.508;4.288;2023-02-10T00:32:05;158.25;;;34.60;;
47403;SDS011;33157;51.508;4.288;2023-02-10T00:37:07;170.23;;;32.17;;
47403;SDS011;33157;51.508;4.288;2023-02-10T00:42:14;206.85;;;33.80;;
47403;SDS011;33157;51.508;4.288;2023-02-10T00:47:15;165.13;;;32.20;;
47403;SDS011;33157;51.508;4.288;2023-02-10T00:52:23;122.78;;;29.90;;
47403;SDS011;33157;51.508;4.288;2023-02-10T00:57:25;149.48;;;34.13;;
47403;SDS011;33157;51.508;4.288;2023-02-10T01:02:29;199.95;;;35.03;;
47403;SDS011;33157;51.508;4.288;2023-02-10T01:07:43;79.97;;;29.48;;
47403;SDS011;33157;51.508;4.288;2023-02-10T01:12:48;57.97;;;28.95;;
47403;SDS011;33157;51.508;4.288;2023-02-10T01:18:07;59.90;;;30.15;;
47403;SDS011;33157;51.508;4.288;2023-02-10T01:23:11;57.70;;;29.10;;
47403;SDS011;33157;51.508;4.288;2023-02-10T01:28:21;48.45;;;26.92;;
47403;SDS011;33157;51.508;4.288;2023-02-10T01:33:22;54.13;;;28.48;;
47403;SDS011;33157;51.508;4.288;2023-02-10T01:38:23;51.72;;;27.40;;
47403;SDS011;33157;51.508;4.288;2023-02-10T01:43:25;48.97;;;27.37;;
47403;SDS011;33157;51.508;4.288;2023-02-10T01:48:31;50.07;;;27.73;;
47403;SDS011;33157;51.508;4.288;2023-02-10T01:53:37;55.13;;;28.98;;
47403;SDS011;33157;51.508;4.288;2023-02-10T01:58:40;53.35;;;28.67;;
47403;SDS011;33157;51.508;4.288;2023-02-10T02:03:45;64.82;;;31.23;;
47403;SDS011;33157;51.508;4.288;2023-02-10T02:08:46;91.63;;;31.63;;
47403;SDS011;33157;51.508;4.288;2023-02-10T02:35:55;181.38;;;40.58;;
47403;SDS011;33157;51.508;4.288;2023-02-10T02:41:12;418.00;;;48.60;;
47403;SDS011;33157;51.508;4.288;2023-02-10T02:51:32;182.57;;;41.58;;
47403;SDS011;33157;51.508;4.288;2023-02-10T02:56:45;130.05;;;35.47;;
47403;SDS011;33157;51.508;4.288;2023-02-10T03:01:57;97.75;;;36.75;;
47403;SDS011;33157;51.508;4.288;2023-02-10T03:07:00;197.25;;;40.65;;
47403;SDS011;33157;51.508;4.288;2023-02-10T03:12:02;137.32;;;40.90;;
47403;SDS011;33157;51.508;4.288;2023-02-10T03:17:10;164.80;;;42.53;;
47403;SDS011;33157;51.508;4.288;2023-02-10T03:22:14;182.68;;;45.53;;
47403;SDS011;33157;51.508;4.288;2023-02-10T03:27:15;202.50;;;46.40;;
47403;SDS011;33157;51.508;4.288;2023-02-10T03:32:16;344.52;;;55.80;;
47403;SDS011;33157;51.508;4.288;2023-02-10T03:37:18;340.77;;;52.83;;
47403;SDS011;33157;51.508;4.288;2023-02-10T03:42:23;247.23;;;49.88;;
47403;SDS011;33157;51.508;4.288;2023-02-10T03:47:37;328.75;;;54.08;;
47403;SDS011;33157;51.508;4.288;2023-02-10T03:52:40;392.23;;;54.15;;
47403;SDS011;33157;51.508;4.288;2023-02-10T03:57:42;208.23;;;48.30;;
47403;SDS011;33157;51.508;4.288;2023-02-10T04:02:44;241.00;;;51.75;;
47403;SDS011;33157;51.508;4.288;2023-02-10T04:07:45;232.38;;;47.20;;
47403;SDS011;33157;51.508;4.288;2023-02-10T04:12:47;141.83;;;42.00;;
47403;SDS011;33157;51.508;4.288;2023-02-10T04:17:49;240.95;;;47.95;;
47403;SDS011;33157;51.508;4.288;2023-02-10T04:23:02;294.85;;;50.25;;
47403;SDS011;33157;51.508;4.288;2023-02-10T04:28:05;222.18;;;47.25;;
47403;SDS011;33157;51.508;4.288;2023-02-10T04:33:13;223.65;;;50.92;;
47403;SDS011;33157;51.508;4.288;2023-02-10T04:38:15;143.60;;;46.08;;
47403;SDS011;33157;51.508;4.288;2023-02-10T04:43:18;420.63;;;56.70;;
47403;SDS011;33157;51.508;4.288;2023-02-10T04:48:20;555.22;;;63.63;;
47403;SDS011;33157;51.508;4.288;2023-02-10T04:53:21;323.85;;;54.85;;
47403;SDS011;33157;51.508;4.288;2023-02-10T04:58:30;323.20;;;55.42;;
47403;SDS011;33157;51.508;4.288;2023-02-10T05:03:33;483.13;;;66.03;;
47403;SDS011;33157;51.508;4.288;2023-02-10T05:08:37;199.27;;;49.97;;
47403;SDS011;33157;51.508;4.288;2023-02-10T05:13:44;297.95;;;55.28;;
47403;SDS011;33157;51.508;4.288;2023-02-10T05:18:45;276.83;;;56.15;;
47403;SDS011;33157;51.508;4.288;2023-02-10T05:23:48;298.10;;;55.22;;
47403;SDS011;33157;51.508;4.288;2023-02-10T05:28:49;295.08;;;56.15;;
47403;SDS011;33157;51.508;4.288;2023-02-10T05:33:51;576.17;;;71.43;;
47403;SDS011;33157;51.508;4.288;2023-02-10T05:39:02;580.20;;;71.30;;
47403;SDS011;33157;51.508;4.288;2023-02-10T05:44:29;455.95;;;63.17;;
47403;SDS011;33157;51.508;4.288;2023-02-10T05:49:33;358.88;;;54.33;;
47403;SDS011;33157;51.508;4.288;2023-02-10T05:54:42;497.42;;;62.60;;
47403;SDS011;33157;51.508;4.288;2023-02-10T05:59:44;289.48;;;54.83;;
47403;SDS011;33157;51.508;4.288;2023-02-10T06:04:55;178.43;;;49.40;;
47403;SDS011;33157;51.508;4.288;2023-02-10T06:09:56;309.85;;;50.63;;
47403;SDS011;33157;51.508;4.288;2023-02-10T06:14:58;267.35;;;53.97;;
47403;SDS011;33157;51.508;4.288;2023-02-10T06:20:02;198.15;;;46.60;;
47403;SDS011;33157;51.508;4.288;2023-02-10T06:25:03;224.43;;;50.35;;
47403;SDS011;33157;51.508;4.288;2023-02-10T06:30:05;154.80;;;49.67;;
47403;SDS011;33157;51.508;4.288;2023-02-10T06:35:07;234.73;;;50.47;;
47403;SDS011;33157;51.508;4.288;2023-02-10T06:40:15;297.83;;;54.88;;
47403;SDS011;33157;51.508;4.288;2023-02-10T06:45:22;327.45;;;56.13;;
47403;SDS011;33157;51.508;4.288;2023-02-10T06:50:23;424.88;;;66.15;;
47403;SDS011;33157;51.508;4.288;2023-02-10T06:55:30;207.35;;;53.53;;
47403;SDS011;33157;51.508;4.288;2023-02-10T07:00:30;303.02;;;58.65;;
47403;SDS011;33157;51.508;4.288;2023-02-10T07:05:38;178.80;;;54.33;;
47403;SDS011;33157;51.508;4.288;2023-02-10T07:10:42;195.50;;;51.78;;
47403;SDS011;33157;51.508;4.288;2023-02-10T07:15:49;211.57;;;58.13;;
47403;SDS011;33157;51.508;4.288;2023-02-10T07:20:50;277.00;;;60.47;;
47403;SDS011;33157;51.508;4.288;2023-02-10T07:25:51;213.73;;;57.83;;
47403;SDS011;33157;51.508;4.288;2023-02-10T07:30:52;185.00;;;55.50;;
47403;SDS011;33157;51.508;4.288;2023-02-10T07:35:54;215.93;;;59.35;;
47403;SDS011;33157;51.508;4.288;2023-02-10T07:41:04;301.23;;;66.30;;
47403;SDS011;33157;51.508;4.288;2023-02-10T07:46:09;316.67;;;65.60;;
47403;SDS011;33157;51.508;4.288;2023-02-10T07:51:16;307.88;;;65.35;;
47403;SDS011;33157;51.508;4.288;2023-02-10T07:56:17;250.43;;;63.28;;
47403;SDS011;33157;51.508;4.288;2023-02-10T08:01:18;425.90;;;80.72;;
47403;SDS011;33157;51.508;4.288;2023-02-10T08:06:21;405.35;;;76.90;;
47403;SDS011;33157;51.508;4.288;2023-02-10T08:11:23;541.33;;;75.10;;
47403;SDS011;33157;51.508;4.288;2023-02-10T08:16:25;601.50;;;84.43;;
47403;SDS011;33157;51.508;4.288;2023-02-10T08:21:33;556.53;;;81.20;;
47403;SDS011;33157;51.508;4.288;2023-02-10T08:26:40;304.27;;;68.80;;
47403;SDS011;33157;51.508;4.288;2023-02-10T08:31:42;573.92;;;88.30;;
47403;SDS011;33157;51.508;4.288;2023-02-10T08:36:56;341.00;;;72.88;;
47403;SDS011;33157;51.508;4.288;2023-02-10T08:41:58;668.88;;;90.18;;
47403;SDS011;33157;51.508;4.288;2023-02-10T08:46:59;606.03;;;88.18;;
47403;SDS011;33157;51.508;4.288;2023-02-10T08:52:06;511.40;;;86.57;;
47403;SDS011;33157;51.508;4.288;2023-02-10T08:57:10;504.77;;;87.50;;
47403;SDS011;33157;51.508;4.288;2023-02-10T09:02:21;386.35;;;76.85;;
47403;SDS011;33157;51.508;4.288;2023-02-10T09:07:25;354.98;;;79.75;;
47403;SDS011;33157;51.508;4.288;2023-02-10T09:12:32;479.70;;;90.85;;
47403;SDS011;33157;51.508;4.288;2023-02-10T09:17:33;421.02;;;80.88;;
47403;SDS011;33157;51.508;4.288;2023-02-10T09:22:43;439.33;;;84.13;;
47403;SDS011;33157;51.508;4.288;2023-02-10T09:27:46;296.65;;;78.95;;
47403;SDS011;33157;51.508;4.288;2023-02-10T09:32:47;371.85;;;84.93;;
47403;SDS011;33157;51.508;4.288;2023-02-10T09:37:48;276.63;;;79.45;;
47403;SDS011;33157;51.508;4.288;2023-02-10T09:42:53;343.02;;;81.30;;
47403;SDS011;33157;51.508;4.288;2023-02-10T09:48:23;340.73;;;82.60;;
47403;SDS011;33157;51.508;4.288;2023-02-10T09:53:31;238.23;;;75.72;;
47403;SDS011;33157;51.508;4.288;2023-02-10T09:58:44;217.95;;;75.30;;
47403;SDS011;33157;51.508;4.288;2023-02-10T10:04:00;233.23;;;76.60;;
47403;SDS011;33157;51.508;4.288;2023-02-10T10:24:55;255.90;;;88.15;;
47403;SDS011;33157;51.508;4.288;2023-02-10T10:30:26;259.60;;;86.75;;
47403;SDS011;33157;51.508;4.288;2023-02-10T10:35:40;265.25;;;92.80;;
47403;SDS011;33157;51.508;4.288;2023-02-10T10:40:44;250.20;;;92.60;;
47403;SDS011;33157;51.508;4.288;2023-02-10T10:46:02;239.48;;;94.10;;
47403;SDS011;33157;51.508;4.288;2023-02-10T10:51:07;217.07;;;88.05;;
47403;SDS011;33157;51.508;4.288;2023-02-10T10:56:12;170.50;;;80.38;;
47403;SDS011;33157;51.508;4.288;2023-02-10T11:01:45;139.05;;;69.80;;
47403;SDS011;33157;51.508;4.288;2023-02-10T11:07:01;132.18;;;66.35;;
47403;SDS011;33157;51.508;4.288;2023-02-10T11:17:35;113.47;;;63.30;;
47403;SDS011;33157;51.508;4.288;2023-02-10T11:22:40;126.80;;;63.70;;
47403;SDS011;33157;51.508;4.288;2023-02-10T11:27:49;119.18;;;63.53;;
47403;SDS011;33157;51.508;4.288;2023-02-10T11:32:52;106.40;;;59.97;;
47403;SDS011;33157;51.508;4.288;2023-02-10T11:38:05;104.65;;;58.95;;
47403;SDS011;33157;51.508;4.288;2023-02-10T11:43:10;114.53;;;61.25;;
47403;SDS011;33157;51.508;4.288;2023-02-10T11:48:13;114.15;;;59.80;;
47403;SDS011;33157;51.508;4.288;2023-02-10T11:53:25;104.47;;;56.50;;
47403;SDS011;33157;51.508;4.288;2023-02-10T11:58:48;110.38;;;56.83;;
47403;SDS011;33157;51.508;4.288;2023-02-10T12:04:03;103.78;;;53.78;;
47403;SDS011;33157;51.508;4.288;2023-02-10T12:42:24;89.35;;;45.00;;
47403;SDS011;33157;51.508;4.288;2023-02-10T12:53:12;95.88;;;47.97;;
47403;SDS011;33157;51.508;4.288;2023-02-10T12:58:26;80.00;;;42.72;;
47403;SDS011;33157;51.508;4.288;2023-02-10T13:03:43;83.65;;;44.45;;
47403;SDS011;33157;51.508;4.288;2023-02-10T13:08:48;74.38;;;40.72;;
47403;SDS011;33157;51.508;4.288;2023-02-10T13:14:02;72.32;;;40.40;;
47403;SDS011;33157;51.508;4.288;2023-02-10T13:24:24;71.25;;;40.53;;
47403;SDS011;33157;51.508;4.288;2023-02-10T13:29:51;70.15;;;40.22;;
47403;SDS011;33157;51.508;4.288;2023-02-10T13:35:15;68.63;;;38.10;;
47403;SDS011;33157;51.508;4.288;2023-02-10T13:40:25;66.75;;;39.58;;
47403;SDS011;33157;51.508;4.288;2023-02-10T13:45:51;57.50;;;35.75;;
47403;SDS011;33157;51.508;4.288;2023-02-10T13:50:53;53.13;;;34.67;;
47403;SDS011;33157;51.508;4.288;2023-02-10T13:56:14;51.70;;;30.60;;
47403;SDS011;33157;51.508;4.288;2023-02-10T14:06:56;47.85;;;29.80;;
47403;SDS011;33157;51.508;4.288;2023-02-10T14:11:58;46.58;;;28.60;;
47403;SDS011;33157;51.508;4.288;2023-02-10T14:22:48;44.22;;;27.58;;
47403;SDS011;33157;51.508;4.288;2023-02-10T14:27:46;40.17;;;26.00;;
47403;SDS011;33157;51.508;4.288;2023-02-10T14:32:50;44.75;;;27.08;;
47403;SDS011;33157;51.508;4.288;2023-02-10T14:37:58;42.75;;;26.92;;
47403;SDS011;33157;51.508;4.288;2023-02-10T14:43:00;43.50;;;26.50;;
47403;SDS011;33157;51.508;4.288;2023-02-10T14:48:06;42.72;;;25.85;;
47403;SDS011;33157;51.508;4.288;2023-02-10T14:53:16;41.00;;;25.65;;
47403;SDS011;33157;51.508;4.288;2023-02-10T14:58:24;48.97;;;28.23;;
47403;SDS011;33157;51.508;4.288;2023-02-10T15:03:32;48.80;;;27.23;;
47403;SDS011;33157;51.508;4.288;2023-02-10T15:13:45;43.45;;;25.95;;
47403;SDS011;33157;51.508;4.288;2023-02-10T15:18:49;43.45;;;26.77;;
47403;SDS011;33157;51.508;4.288;2023-02-10T15:23:54;48.95;;;26.92;;
47403;SDS011;33157;51.508;4.288;2023-02-10T15:28:59;46.20;;;27.25;;
47403;SDS011;33157;51.508;4.288;2023-02-10T15:39:27;49.92;;;27.48;;
47403;SDS011;33157;51.508;4.288;2023-02-10T15:44:41;55.13;;;30.02;;
47403;SDS011;33157;51.508;4.288;2023-02-10T15:49:43;47.97;;;27.35;;
47403;SDS011;33157;51.508;4.288;2023-02-10T15:54:48;51.85;;;28.50;;
47403;SDS011;33157;51.508;4.288;2023-02-10T15:59:52;53.17;;;29.13;;
47403;SDS011;33157;51.508;4.288;2023-02-10T16:05:03;48.92;;;29.08;;
47403;SDS011;33157;51.508;4.288;2023-02-10T16:15:28;57.70;;;30.13;;
47403;SDS011;33157;51.508;4.288;2023-02-10T16:20:33;57.72;;;31.33;;
47403;SDS011;33157;51.508;4.288;2023-02-10T16:25:43;54.72;;;30.88;;
47403;SDS011;33157;51.508;4.288;2023-02-10T16:30:51;60.92;;;31.30;;
47403;SDS011;33157;51.508;4.288;2023-02-10T16:35:59;61.58;;;30.65;;
47403;SDS011;33157;51.508;4.288;2023-02-10T16:41:13;54.30;;;30.25;;
47403;SDS011;33157;51.508;4.288;2023-02-10T16:46:24;58.67;;;30.23;;
47403;SDS011;33157;51.508;4.288;2023-02-10T16:56:48;60.35;;;30.90;;
47403;SDS011;33157;51.508;4.288;2023-02-10T17:02:01;61.90;;;32.78;;
47403;SDS011;33157;51.508;4.288;2023-02-10T17:07:15;57.17;;;31.58;;
47403;SDS011;33157;51.508;4.288;2023-02-10T17:12:16;67.60;;;34.15;;
47403;SDS011;33157;51.508;4.288;2023-02-10T17:17:23;61.55;;;33.45;;
47403;SDS011;33157;51.508;4.288;2023-02-10T17:22:31;58.65;;;33.60;;
47403;SDS011;33157;51.508;4.288;2023-02-10T17:27:44;54.83;;;32.00;;
47403;SDS011;33157;51.508;4.288;2023-02-10T17:32:51;67.60;;;32.25;;
47403;SDS011;33157;51.508;4.288;2023-02-10T17:38:00;62.80;;;33.90;;
47403;SDS011;33157;51.508;4.288;2023-02-10T17:43:29;70.50;;;36.10;;
47403;SDS011;33157;51.508;4.288;2023-02-10T17:48:30;58.38;;;34.53;;
47403;SDS011;33157;51.508;4.288;2023-02-10T17:53:31;65.32;;;35.10;;
47403;SDS011;33157;51.508;4.288;2023-02-10T17:58:37;70.78;;;34.65;;
47403;SDS011;33157;51.508;4.288;2023-02-10T18:03:38;70.38;;;36.22;;
47403;SDS011;33157;51.508;4.288;2023-02-10T18:08:42;70.38;;;38.58;;
47403;SDS011;33157;51.508;4.288;2023-02-10T18:13:55;72.18;;;36.70;;
47403;SDS011;33157;51.508;4.288;2023-02-10T18:18:56;61.35;;;34.45;;
47403;SDS011;33157;51.508;4.288;2023-02-10T18:23:57;68.63;;;36.40;;
47403;SDS011;33157;51.508;4.288;2023-02-10T18:28:59;63.17;;;34.38;;
47403;SDS011;33157;51.508;4.288;2023-02-10T18:34:00;66.03;;;34.70;;
47403;SDS011;33157;51.508;4.288;2023-02-10T18:39:07;66.03;;;35.03;;
47403;SDS011;33157;51.508;4.288;2023-02-10T18:44:16;65.95;;;33.20;;
47403;SDS011;33157;51.508;4.288;2023-02-10T18:49:25;58.72;;;33.25;;
47403;SDS011;33157;51.508;4.288;2023-02-10T18:54:27;60.05;;;33.50;;
47403;SDS011;33157;51.508;4.288;2023-02-10T18:59:37;49.23;;;29.67;;
47403;SDS011;33157;51.508;4.288;2023-02-10T19:04:49;56.92;;;30.17;;
47403;SDS011;33157;51.508;4.288;2023-02-10T19:09:51;55.28;;;29.50;;
47403;SDS011;33157;51.508;4.288;2023-02-10T19:14:53;42.97;;;26.50;;
47403;SDS011;33157;51.508;4.288;2023-02-10T19:19:55;43.75;;;25.63;;
47403;SDS011;33157;51.508;4.288;2023-02-10T19:25:01;43.97;;;23.95;;
47403;SDS011;33157;51.508;4.288;2023-02-10T19:30:03;45.30;;;23.98;;
47403;SDS011;33157;51.508;4.288;2023-02-10T19:35:16;41.70;;;24.50;;
47403;SDS011;33157;51.508;4.288;2023-02-10T19:40:25;43.20;;;24.35;;
47403;SDS011;33157;51.508;4.288;2023-02-10T19:45:35;39.65;;;22.02;;
47403;SDS011;33157;51.508;4.288;2023-02-10T19:50:43;33.47;;;19.92;;
47403;SDS011;33157;51.508;4.288;2023-02-10T19:55:48;29.98;;;16.17;;
47403;SDS011;33157;51.508;4.288;2023-02-10T20:01:06;24.30;;;12.05;;
47403;SDS011;33157;51.508;4.288;2023-02-10T20:06:20;23.35;;;9.73;;
47403;SDS011;33157;51.508;4.288;2023-02-10T20:12:02;16.90;;;9.43;;
47403;SDS011;33157;51.508;4.288;2023-02-10T20:17:11;22.02;;;10.23;;
47403;SDS011;33157;51.508;4.288;2023-02-10T20:22:24;18.30;;;8.10;;
47403;SDS011;33157;51.508;4.288;2023-02-10T20:27:37;14.68;;;6.90;;
47403;SDS011;33157;51.508;4.288;2023-02-10T20:32:48;17.17;;;6.95;;
47403;SDS011;33157;51.508;4.288;2023-02-10T20:37:56;15.57;;;7.68;;
47403;SDS011;33157;51.508;4.288;2023-02-10T20:43:03;16.50;;;6.65;;
47403;SDS011;33157;51.508;4.288;2023-02-10T20:56:04;14.05;;;5.22;;
47403;SDS011;33157;51.508;4.288;2023-02-10T21:01:20;17.77;;;6.50;;
47403;SDS011;33157;51.508;4.288;2023-02-10T21:06:29;21.42;;;5.95;;
47403;SDS011;33157;51.508;4.288;2023-02-10T21:12:17;21.08;;;5.63;;
47403;SDS011;33157;51.508;4.288;2023-02-10T21:18:48;18.98;;;5.78;;
47403;SDS011;33157;51.508;4.288;2023-02-10T21:23:59;24.63;;;6.35;;
47403;SDS011;33157;51.508;4.288;2023-02-10T21:29:11;19.48;;;5.72;;
47403;SDS011;33157;51.508;4.288;2023-02-10T21:34:20;16.88;;;6.28;;
47403;SDS011;33157;51.508;4.288;2023-02-10T21:39:21;20.00;;;6.00;;
47403;SDS011;33157;51.508;4.288;2023-02-10T21:44:38;20.33;;;6.25;;
47403;SDS011;33157;51.508;4.288;2023-02-10T21:49:48;22.63;;;6.47;;
47403;SDS011;33157;51.508;4.288;2023-02-10T21:54:56;18.15;;;6.50;;
47403;SDS011;33157;51.508;4.288;2023-02-10T22:00:02;22.70;;;7.20;;
47403;SDS011;33157;51.508;4.288;2023-02-10T22:05:20;17.55;;;5.65;;
47403;SDS011;33157;51.508;4.288;2023-02-10T22:10:22;23.08;;;5.13;;
47403;SDS011;33157;51.508;4.288;2023-02-10T22:15:24;20.55;;;6.20;;
47403;SDS011;33157;51.508;4.288;2023-02-10T22:20:33;18.23;;;4.95;;
47403;SDS011;33157;51.508;4.288;2023-02-10T22:25:47;24.90;;;5.28;;
47403;SDS011;33157;51.508;4.288;2023-02-10T22:30:54;22.30;;;5.32;;
47403;SDS011;33157;51.508;4.288;2023-02-10T22:35:58;26.45;;;5.57;;
47403;SDS011;33157;51.508;4.288;2023-02-10T22:41:12;20.25;;;4.68;;
47403;SDS011;33157;51.508;4.288;2023-02-10T22:46:17;23.15;;;4.85;;
47403;SDS011;33157;51.508;4.288;2023-02-10T22:51:28;18.45;;;4.97;;
47403;SDS011;33157;51.508;4.288;2023-02-10T22:56:31;28.92;;;5.22;;
47403;SDS011;33157;51.508;4.288;2023-02-10T23:01:43;16.42;;;3.97;;
47403;SDS011;33157;51.508;4.288;2023-02-10T23:06:44;24.05;;;5.53;;
47403;SDS011;33157;51.508;4.288;2023-02-10T23:11:54;19.23;;;4.82;;
47403;SDS011;33157;51.508;4.288;2023-02-10T23:17:00;24.08;;;4.45;;
47403;SDS011;33157;51.508;4.288;2023-02-10T23:22:07;20.33;;;4.90;;
47403;SDS011;33157;51.508;4.288;2023-02-10T23:27:08;18.05;;;4.30;;
47403;SDS011;33157;51.508;4.288;2023-02-10T23:32:12;25.95;;;6.53;;
47403;SDS011;33157;51.508;4.288;2023-02-10T23:37:19;26.98;;;5.55;;
47403;SDS011;33157;51.508;4.288;2023-02-10T23:42:21;21.40;;;3.90;;
47403;SDS011;33157;51.508;4.288;2023-02-10T23:47:22;21.50;;;4.80;;
47403;SDS011;33157;51.508;4.288;2023-02-10T23:52:24;15.15;;;4.25;;
47403;SDS011;33157;51.508;4.288;2023-02-10T23:57:29;21.90;;;4.78;;
